createdAt,value
2023-05-16T00:00:42.000Z,11.28
2023-05-16T00:03:12.375Z,11.44
2023-05-16T00:05:39.455Z,11.56
2023-05-16T00:08:06.898Z,11.36
2023-05-16T00:10:33.963Z,11.28
2023-05-16T00:13:02.217Z,11.21
2023-05-16T00:15:32.665Z,11.30
2023-05-16T00:18:01.947Z,11.31
2023-05-16T00:20:29.896Z,11.41
2023-05-16T00:23:01.458Z,11.31
2023-05-16T00:25:29.082Z,11.24
2023-05-16T00:27:56.050Z,11.30
2023-05-16T00:30:23.067Z,11.36
2023-05-16T00:32:50.028Z,11.43
2023-05-16T00:35:16.821Z,11.27
2023-05-16T00:37:43.840Z,11.54
2023-05-16T00:40:11.116Z,11.43
2023-05-16T00:42:39.116Z,11.36
2023-05-16T00:45:07.200Z,11.48
2023-05-16T00:47:34.208Z,11.57
2023-05-16T00:50:02.242Z,11.60
2023-05-16T00:52:29.340Z,11.65
2023-05-16T00:54:56.403Z,11.60
2023-05-16T00:57:23.971Z,11.62
2023-05-16T00:59:51.574Z,11.60
2023-05-16T01:02:18.523Z,11.42
2023-05-16T01:04:48.528Z,11.47
2023-05-16T01:07:15.671Z,11.32
2023-05-16T01:09:42.774Z,11.14
2023-05-16T01:12:28.444Z,11.01
2023-05-16T01:15:09.092Z,11.03
2023-05-16T01:18:12.781Z,11.03
2023-05-16T01:21:04.247Z,10.87
2023-05-16T01:23:59.308Z,10.67
2023-05-16T01:26:28.449Z,10.57
2023-05-16T01:28:56.230Z,10.50
2023-05-16T01:31:24.480Z,10.56
2023-05-16T01:33:51.643Z,10.65
2023-05-16T01:36:47.945Z,10.73
2023-05-16T01:39:22.465Z,10.86
2023-05-16T01:42:27.618Z,10.81
2023-05-16T01:45:07.421Z,10.80
2023-05-16T01:47:40.491Z,10.81
2023-05-16T01:50:10.247Z,10.80
2023-05-16T01:52:43.481Z,10.69
2023-05-16T01:55:12.516Z,10.54
2023-05-16T01:57:41.281Z,10.62
2023-05-16T02:00:09.134Z,10.69
2023-05-16T02:02:36.087Z,10.68
2023-05-16T02:05:03.069Z,10.50
2023-05-16T02:07:30.326Z,10.50
2023-05-16T02:09:57.212Z,10.51
2023-05-16T02:12:25.525Z,10.44
2023-05-16T02:14:52.525Z,10.51
2023-05-16T02:17:19.517Z,10.56
2023-05-16T02:19:46.512Z,10.53
2023-05-16T02:22:13.368Z,10.57
2023-05-16T02:24:40.773Z,10.46
2023-05-16T02:27:07.685Z,10.58
2023-05-16T02:29:34.671Z,10.57
2023-05-16T02:32:01.571Z,10.56
2023-05-16T02:34:28.645Z,10.45
2023-05-16T02:36:55.486Z,10.46
2023-05-16T02:39:22.321Z,10.40
2023-05-16T02:41:49.248Z,10.42
2023-05-16T02:44:16.416Z,10.49
2023-05-16T02:46:43.600Z,10.41
2023-05-16T02:49:10.702Z,10.47
2023-05-16T02:51:37.517Z,10.52
2023-05-16T02:54:04.759Z,10.37
2023-05-16T02:56:31.572Z,10.28
2023-05-16T02:58:58.570Z,10.33
2023-05-16T03:01:25.392Z,10.17
2023-05-16T03:03:52.576Z,10.22
2023-05-16T03:06:19.575Z,10.37
2023-05-16T03:08:46.738Z,10.25
2023-05-16T03:11:14.452Z,10.26
2023-05-16T03:13:41.956Z,10.29
2023-05-16T03:16:08.939Z,10.25
2023-05-16T03:18:36.097Z,10.11
2023-05-16T03:21:03.528Z,10.19
2023-05-16T03:23:30.484Z,10.24
2023-05-16T03:25:57.542Z,10.25
2023-05-16T03:28:24.636Z,10.26
2023-05-16T03:30:51.534Z,10.27
2023-05-16T03:33:19.334Z,10.29
2023-05-16T03:35:47.221Z,10.29
2023-05-16T03:38:17.520Z,10.22
2023-05-16T03:40:44.808Z,10.34
2023-05-16T03:43:11.647Z,10.55
2023-05-16T03:45:38.510Z,10.35
2023-05-16T03:48:05.731Z,10.42
2023-05-16T03:50:32.862Z,10.49
2023-05-16T03:52:59.772Z,10.30
2023-05-16T03:55:26.854Z,10.23
2023-05-16T03:57:54.355Z,10.19
2023-05-16T04:00:21.649Z,10.02
2023-05-16T04:02:48.864Z,10.04
2023-05-16T04:05:15.961Z,10.11
2023-05-16T04:07:42.980Z,9.94
2023-05-16T04:10:10.840Z,9.96
2023-05-16T04:12:38.262Z,9.88
2023-05-16T04:15:06.427Z,10.02
2023-05-16T04:17:33.940Z,10.20
2023-05-16T04:20:01.195Z,10.26
2023-05-16T04:22:28.151Z,10.28
2023-05-16T04:24:55.279Z,10.45
2023-05-16T04:27:22.218Z,10.66
2023-05-16T04:29:49.635Z,10.73
2023-05-16T04:32:17.586Z,11.02
2023-05-16T04:34:46.939Z,11.60
2023-05-16T04:37:14.362Z,12.52
2023-05-16T04:39:46.073Z,13.31
2023-05-16T04:42:13.211Z,13.71
2023-05-16T04:44:40.032Z,13.54
2023-05-16T04:47:07.438Z,14.74
2023-05-16T04:49:34.395Z,15.23
2023-05-16T04:52:02.283Z,15.51
2023-05-16T04:54:29.019Z,15.21
2023-05-16T04:56:56.203Z,14.60
2023-05-16T04:59:23.939Z,13.84
2023-05-16T05:01:50.953Z,13.39
2023-05-16T05:04:18.062Z,12.53
2023-05-16T05:06:45.115Z,12.19
2023-05-16T05:09:11.858Z,12.03
2023-05-16T05:11:38.667Z,12.10
2023-05-16T05:14:05.855Z,12.82
2023-05-16T05:16:33.418Z,12.85
2023-05-16T05:19:00.700Z,14.00
2023-05-16T05:21:27.802Z,14.93
2023-05-16T05:23:54.579Z,14.50
2023-05-16T05:26:22.694Z,14.12
2023-05-16T05:29:00.980Z,13.93
2023-05-16T05:31:31.456Z,14.44
2023-05-16T05:33:58.387Z,16.11
2023-05-16T05:36:25.582Z,17.42
2023-05-16T05:38:52.386Z,18.64
2023-05-16T05:41:19.361Z,17.29
2023-05-16T05:43:46.655Z,15.50
2023-05-16T05:46:13.849Z,15.04
2023-05-16T05:48:41.188Z,14.08
2023-05-16T05:51:08.030Z,13.49
2023-05-16T05:53:35.046Z,13.94
2023-05-16T05:56:01.989Z,14.50
2023-05-16T05:58:29.160Z,14.30
2023-05-16T06:00:56.306Z,14.81
2023-05-16T06:03:23.281Z,16.15
2023-05-16T06:05:50.350Z,16.98
2023-05-16T06:08:23.080Z,17.27
2023-05-16T06:10:50.493Z,19.45
2023-05-16T06:13:17.565Z,21.38
2023-05-16T06:15:44.386Z,22.49
2023-05-16T06:18:11.228Z,24.23
2023-05-16T06:20:38.041Z,25.66
2023-05-16T06:23:05.047Z,25.01
2023-05-16T06:25:32.491Z,26.55
2023-05-16T06:27:59.767Z,26.92
2023-05-16T06:30:26.680Z,28.36
2023-05-16T06:32:53.543Z,29.66
2023-05-16T06:35:20.843Z,29.07
2023-05-16T06:37:47.916Z,24.34
2023-05-16T06:40:15.085Z,23.49
2023-05-16T06:42:42.238Z,23.44
2023-05-16T06:45:10.798Z,25.53
2023-05-16T06:47:37.901Z,25.46
2023-05-16T06:50:05.374Z,24.45
2023-05-16T06:52:32.261Z,24.82
2023-05-16T06:54:59.236Z,26.02
2023-05-16T06:57:26.489Z,25.89
2023-05-16T06:59:53.485Z,27.29
2023-05-16T07:02:20.486Z,28.52
2023-05-16T07:04:48.108Z,29.91
2023-05-16T07:07:15.578Z,31.46
2023-05-16T07:09:42.543Z,32.43
2023-05-16T07:12:10.037Z,31.06
2023-05-16T07:14:37.023Z,28.63
2023-05-16T07:17:04.644Z,27.23
2023-05-16T07:19:31.827Z,27.16
2023-05-16T07:21:58.782Z,26.50
2023-05-16T07:24:25.783Z,25.76
2023-05-16T07:26:52.761Z,23.42
2023-05-16T07:29:20.172Z,21.44
2023-05-16T07:31:47.233Z,24.95
2023-05-16T07:34:14.152Z,29.55
2023-05-16T07:36:41.638Z,31.45
2023-05-16T07:39:08.573Z,32.46
2023-05-16T07:41:35.918Z,29.96
2023-05-16T07:44:03.309Z,28.70
2023-05-16T07:46:30.506Z,30.31
2023-05-16T07:48:57.508Z,33.60
2023-05-16T07:51:24.719Z,33.82
2023-05-16T07:53:52.319Z,29.47
2023-05-16T07:56:19.442Z,24.64
2023-05-16T07:58:49.233Z,21.67
2023-05-16T08:01:17.287Z,20.12
2023-05-16T08:03:44.362Z,23.97
2023-05-16T08:06:12.204Z,29.81
2023-05-16T08:08:39.128Z,31.84
2023-05-16T08:11:06.091Z,30.81
2023-05-16T08:13:33.002Z,31.16
2023-05-16T08:16:00.024Z,33.24
2023-05-16T08:18:27.092Z,37.28
2023-05-16T08:20:54.009Z,38.20
2023-05-16T08:23:21.922Z,37.63
2023-05-16T08:25:49.062Z,38.20
2023-05-16T08:28:16.266Z,37.00
2023-05-16T08:30:44.562Z,37.62
2023-05-16T08:33:13.003Z,39.25
2023-05-16T08:35:44.309Z,38.99
2023-05-16T08:38:11.619Z,38.31
2023-05-16T08:40:38.636Z,34.02
2023-05-16T08:43:05.783Z,35.32
2023-05-16T08:45:32.781Z,36.54
2023-05-16T08:48:01.608Z,30.60
2023-05-16T08:50:32.907Z,29.64
2023-05-16T08:53:07.370Z,33.50
2023-05-16T08:55:36.055Z,36.28
2023-05-16T08:58:03.988Z,34.09
2023-05-16T09:00:31.959Z,27.94
2023-05-16T09:02:59.766Z,23.48
2023-05-16T09:05:30.505Z,27.40
2023-05-16T09:07:57.601Z,33.96
2023-05-16T09:10:24.809Z,36.51
2023-05-16T09:12:52.063Z,36.85
2023-05-16T09:15:20.931Z,36.37
2023-05-16T09:17:49.344Z,36.18
2023-05-16T09:20:18.666Z,37.44
2023-05-16T09:22:53.315Z,39.12
2023-05-16T09:25:30.420Z,38.33
2023-05-16T09:27:59.870Z,38.61
2023-05-16T09:30:35.167Z,33.42
2023-05-16T09:33:02.741Z,28.87
2023-05-16T09:37:59.899Z,23.87
2023-05-16T09:40:26.766Z,28.31
2023-05-16T09:43:06.073Z,26.49
2023-05-16T09:45:34.478Z,24.14
2023-05-16T09:48:08.800Z,21.65
2023-05-16T09:50:37.968Z,20.47
2023-05-16T09:53:05.776Z,20.29
2023-05-16T09:55:33.242Z,20.92
2023-05-16T09:58:00.281Z,22.26
2023-05-16T10:00:32.542Z,22.37
2023-05-16T10:03:04.323Z,24.00
2023-05-16T10:05:33.083Z,29.12
2023-05-16T10:08:02.906Z,26.62
2023-05-16T10:10:30.464Z,24.06
2023-05-16T10:13:01.747Z,26.21
2023-05-16T10:15:30.359Z,32.33
2023-05-16T10:18:00.820Z,33.22
2023-05-16T10:20:28.524Z,27.77
2023-05-16T10:22:58.661Z,23.33
2023-05-16T10:25:39.501Z,20.68
2023-05-16T10:28:09.027Z,19.49
2023-05-16T10:30:37.723Z,20.18
2023-05-16T10:33:05.365Z,22.39
2023-05-16T10:35:33.349Z,23.56
2023-05-16T10:38:01.942Z,19.15
2023-05-16T10:40:31.010Z,17.30
2023-05-16T10:43:00.013Z,16.52
2023-05-16T10:45:27.809Z,15.87
2023-05-16T10:47:56.766Z,16.86
2023-05-16T10:50:44.014Z,18.17
2023-05-16T10:53:14.528Z,18.56
2023-05-16T10:56:00.574Z,18.98
2023-05-16T10:58:33.506Z,19.66
2023-05-16T11:01:19.316Z,19.56
2023-05-16T11:04:00.897Z,20.94
2023-05-16T11:06:41.351Z,22.00
2023-05-16T11:09:11.484Z,29.33
2023-05-16T11:11:45.606Z,33.48
2023-05-16T11:14:27.108Z,34.73
2023-05-16T11:17:12.563Z,36.06
2023-05-16T11:19:48.162Z,37.42
2023-05-16T11:22:23.968Z,38.48
2023-05-16T11:24:54.266Z,36.93
2023-05-16T11:27:28.122Z,35.05
2023-05-16T11:30:02.095Z,33.78
2023-05-16T11:32:31.301Z,35.53
2023-05-16T11:34:58.662Z,33.74
2023-05-16T11:37:28.470Z,33.76
2023-05-16T11:40:00.479Z,32.72
2023-05-16T11:42:39.792Z,31.43
2023-05-16T11:45:12.508Z,31.57
2023-05-16T11:47:40.891Z,27.48
2023-05-16T11:50:13.341Z,24.14
2023-05-16T11:52:42.906Z,21.57
2023-05-16T11:55:11.544Z,19.15
2023-05-16T11:57:39.543Z,16.61
2023-05-16T12:00:15.407Z,16.73
2023-05-16T12:02:42.413Z,16.90
2023-05-16T12:05:10.796Z,17.80
2023-05-16T12:07:38.570Z,18.28
2023-05-16T12:10:09.847Z,16.89
2023-05-16T12:12:38.425Z,15.10
2023-05-16T12:15:07.283Z,14.50
2023-05-16T12:17:38.595Z,14.80
2023-05-16T12:20:06.974Z,15.69
2023-05-16T12:22:34.822Z,16.13
2023-05-16T12:25:39.480Z,16.11
2023-05-16T12:28:09.953Z,15.49
2023-05-16T12:30:41.708Z,15.78
2023-05-16T12:33:13.478Z,15.10
2023-05-16T12:35:46.040Z,14.94
2023-05-16T12:38:15.456Z,14.41
2023-05-16T12:40:43.942Z,13.32
2023-05-16T12:43:19.837Z,12.87
2023-05-16T12:45:57.583Z,13.28
2023-05-16T12:48:35.624Z,15.11
2023-05-16T12:51:17.535Z,16.41
2023-05-16T12:54:01.601Z,16.13
2023-05-16T12:56:36.398Z,15.69
2023-05-16T12:59:04.058Z,15.49
2023-05-16T13:01:31.332Z,16.22
2023-05-16T13:03:58.467Z,16.20
2023-05-16T13:06:25.689Z,15.62
2023-05-16T13:08:52.762Z,15.01
2023-05-16T13:11:19.870Z,15.58
2023-05-16T13:13:47.057Z,15.94
2023-05-16T13:16:13.931Z,15.45
2023-05-16T13:18:41.173Z,14.54
2023-05-16T13:21:08.226Z,13.84
2023-05-16T13:23:35.215Z,13.84
2023-05-16T13:26:02.084Z,14.58
2023-05-16T13:28:29.094Z,15.36
2023-05-16T13:30:56.536Z,15.11
2023-05-16T13:33:25.130Z,14.36
2023-05-16T13:35:52.216Z,13.99
2023-05-16T13:38:19.062Z,14.10
2023-05-16T13:40:45.980Z,14.12
2023-05-16T13:43:15.775Z,14.25
2023-05-16T13:45:44.479Z,14.41
2023-05-16T13:48:11.736Z,14.49
2023-05-16T13:50:44.065Z,15.29
2023-05-16T13:53:11.721Z,15.33
2023-05-16T13:55:38.933Z,15.74
2023-05-16T13:58:06.083Z,15.36
2023-05-16T14:00:44.309Z,15.47
2023-05-16T14:03:12.582Z,15.40
2023-05-16T14:05:39.980Z,15.59
2023-05-16T14:08:07.042Z,16.08
2023-05-16T14:10:34.003Z,16.47
2023-05-16T14:13:01.070Z,16.19
2023-05-16T14:15:28.448Z,16.05
2023-05-16T14:17:55.774Z,15.57
2023-05-16T14:20:23.280Z,16.01
2023-05-16T14:22:50.384Z,15.27
2023-05-16T14:25:17.697Z,15.18
2023-05-16T14:27:44.726Z,14.58
2023-05-16T14:30:12.707Z,14.15
2023-05-16T14:32:40.228Z,14.66
2023-05-16T14:35:07.543Z,15.03
2023-05-16T14:37:34.350Z,15.26
2023-05-16T14:40:01.223Z,15.35
2023-05-16T14:42:28.285Z,15.52
2023-05-16T14:44:55.174Z,15.71
2023-05-16T14:47:22.223Z,16.34
2023-05-16T14:49:49.182Z,16.36
2023-05-16T14:52:16.292Z,16.88
2023-05-16T14:54:43.396Z,16.90
2023-05-16T14:57:10.314Z,17.68
2023-05-16T14:59:37.257Z,18.16
2023-05-16T15:02:04.771Z,17.41
2023-05-16T15:04:33.043Z,16.92
2023-05-16T15:07:00.203Z,16.17
2023-05-16T15:09:27.366Z,16.01
2023-05-16T15:11:54.194Z,16.27
2023-05-16T15:14:21.250Z,16.21
2023-05-16T15:16:49.272Z,15.69
2023-05-16T15:19:16.409Z,14.90
2023-05-16T15:21:43.999Z,14.62
2023-05-16T15:24:12.506Z,15.59
2023-05-16T15:26:40.168Z,16.26
2023-05-16T15:29:07.225Z,16.30
2023-05-16T15:31:34.161Z,15.67
2023-05-16T15:34:01.177Z,15.42
2023-05-16T15:36:29.476Z,15.50
2023-05-16T15:38:56.541Z,15.57
2023-05-16T15:41:37.098Z,15.20
2023-05-16T15:44:10.938Z,14.79
2023-05-16T15:46:38.097Z,15.05
2023-05-16T15:49:05.333Z,14.77
2023-05-16T15:51:32.327Z,14.98
2023-05-16T15:53:59.315Z,14.10
2023-05-16T15:56:26.671Z,14.51
2023-05-16T15:58:57.152Z,14.55
2023-05-16T16:01:24.215Z,14.53
2023-05-16T16:03:51.848Z,14.67
2023-05-16T16:06:20.038Z,14.72
2023-05-16T16:08:46.849Z,14.60
2023-05-16T16:11:13.893Z,14.67
2023-05-16T16:13:40.978Z,14.36
2023-05-16T16:16:08.139Z,13.91
2023-05-16T16:18:35.076Z,13.77
2023-05-16T16:21:02.108Z,13.36
2023-05-16T16:23:29.076Z,13.06
2023-05-16T16:25:56.141Z,13.14
2023-05-16T16:28:23.418Z,13.27
2023-05-16T16:30:50.822Z,13.32
2023-05-16T16:33:17.833Z,13.52
2023-05-16T16:35:45.069Z,13.43
2023-05-16T16:38:12.102Z,13.09
2023-05-16T16:40:39.069Z,12.62
2023-05-16T16:43:07.344Z,12.07
2023-05-16T16:45:34.291Z,11.77
2023-05-16T16:48:01.317Z,11.39
2023-05-16T16:50:28.300Z,11.26
2023-05-16T16:52:55.450Z,10.99
2023-05-16T16:55:22.538Z,10.97
2023-05-16T16:57:51.760Z,10.90
2023-05-16T17:00:19.590Z,10.84
2023-05-16T17:02:46.567Z,10.71
2023-05-16T17:05:13.962Z,10.14
2023-05-16T17:07:40.966Z,10.38
2023-05-16T17:10:09.377Z,10.55
2023-05-16T17:12:38.058Z,10.27
2023-05-16T17:15:06.512Z,10.23
2023-05-16T17:17:33.758Z,10.36
2023-05-16T17:20:04.388Z,10.46
2023-05-16T17:22:31.680Z,10.58
2023-05-16T17:24:58.696Z,10.72
2023-05-16T17:27:25.920Z,10.77
2023-05-16T17:29:52.930Z,10.78
2023-05-16T17:32:21.602Z,10.69
2023-05-16T17:34:48.800Z,10.51
2023-05-16T17:37:15.984Z,10.50
2023-05-16T17:39:43.014Z,10.49
2023-05-16T17:42:11.331Z,10.31
2023-05-16T17:44:38.384Z,10.20
2023-05-16T17:47:05.342Z,10.02
2023-05-16T17:49:35.648Z,10.05
2023-05-16T17:52:02.941Z,9.91
2023-05-16T17:54:32.726Z,10.08
2023-05-16T17:57:00.806Z,9.74
2023-05-16T17:59:28.009Z,9.75
2023-05-16T18:01:56.385Z,10.03
2023-05-16T18:04:24.240Z,9.84
2023-05-16T18:06:54.875Z,9.97
2023-05-16T18:09:25.748Z,10.08
2023-05-16T18:11:52.950Z,9.99
2023-05-16T18:14:20.176Z,9.82
2023-05-16T18:16:47.274Z,9.89
2023-05-16T18:19:14.619Z,9.95
2023-05-16T18:21:44.428Z,9.85
2023-05-16T18:24:13.308Z,9.92
2023-05-16T18:26:40.401Z,9.83
2023-05-16T18:29:08.572Z,9.98
2023-05-16T18:31:35.762Z,9.96
2023-05-16T18:34:02.969Z,9.76
2023-05-16T18:36:29.967Z,9.77
2023-05-16T18:38:57.215Z,9.71
2023-05-16T18:41:24.179Z,9.82
2023-05-16T18:43:51.221Z,9.78
2023-05-16T18:46:18.122Z,9.74
2023-05-16T18:48:45.173Z,9.72
2023-05-16T18:51:14.093Z,9.64
2023-05-16T18:53:41.360Z,9.70
2023-05-16T18:56:09.828Z,9.82
2023-05-16T18:58:37.148Z,9.87
2023-05-16T19:01:04.413Z,10.06
2023-05-16T19:03:31.815Z,10.03
2023-05-16T19:05:59.008Z,10.07
2023-05-16T19:08:31.233Z,9.95
2023-05-16T19:11:04.161Z,9.88
2023-05-16T19:13:32.578Z,9.82
2023-05-16T19:15:59.503Z,9.87
2023-05-16T19:18:26.979Z,9.87
2023-05-16T19:20:54.140Z,9.92
2023-05-16T19:23:21.910Z,9.76
2023-05-16T19:25:49.269Z,9.50
2023-05-16T19:28:16.912Z,9.54
2023-05-16T19:30:44.318Z,9.41
2023-05-16T19:33:11.281Z,9.36
2023-05-16T19:35:38.706Z,9.67
2023-05-16T19:38:05.943Z,9.63
2023-05-16T19:40:34.580Z,9.67
2023-05-16T19:43:01.704Z,9.70
2023-05-16T19:45:28.914Z,9.61
2023-05-16T19:47:56.151Z,9.47
2023-05-16T19:50:23.204Z,9.40
2023-05-16T19:52:50.287Z,9.21
2023-05-16T19:55:17.202Z,9.23
2023-05-16T19:57:44.471Z,9.16
2023-05-16T20:00:12.083Z,9.19
2023-05-16T20:02:38.913Z,9.13
2023-05-16T20:05:06.825Z,9.16
2023-05-16T20:07:33.674Z,9.48
2023-05-16T20:10:01.203Z,9.11
2023-05-16T20:12:28.153Z,8.84
2023-05-16T20:14:55.112Z,8.72
2023-05-16T20:17:22.159Z,8.62
2023-05-16T20:19:49.300Z,8.73
2023-05-16T20:22:16.277Z,8.87
2023-05-16T20:24:43.686Z,8.98
2023-05-16T20:27:10.664Z,8.98
2023-05-16T20:29:37.908Z,9.08
2023-05-16T20:32:05.128Z,9.08
2023-05-16T20:34:32.154Z,9.10
2023-05-16T20:36:59.585Z,9.15
2023-05-16T20:39:26.444Z,9.19
2023-05-16T20:41:53.606Z,9.18
2023-05-16T20:44:21.115Z,8.99
2023-05-16T20:46:48.070Z,9.05
2023-05-16T20:49:15.243Z,9.29
2023-05-16T20:51:42.640Z,9.25
2023-05-16T20:54:10.865Z,9.20
2023-05-16T20:56:37.908Z,9.29
2023-05-16T20:59:04.891Z,9.17
2023-05-16T21:01:32.154Z,9.28
2023-05-16T21:03:59.235Z,9.32
2023-05-16T21:06:26.307Z,9.08
2023-05-16T21:08:53.382Z,9.19
2023-05-16T21:11:20.521Z,9.15
2023-05-16T21:13:47.904Z,9.15
2023-05-16T21:16:15.541Z,9.27
2023-05-16T21:18:42.857Z,9.10
2023-05-16T21:21:10.033Z,9.04
2023-05-16T21:23:37.321Z,8.89
2023-05-16T21:26:04.377Z,8.92
2023-05-16T21:28:32.789Z,8.99
2023-05-16T21:31:01.751Z,8.97
2023-05-16T21:33:28.832Z,9.04
2023-05-16T21:35:56.035Z,8.96
2023-05-16T21:38:23.030Z,8.86
2023-05-16T21:40:50.249Z,8.90
2023-05-16T21:43:17.258Z,8.80
2023-05-16T21:45:44.151Z,8.94
2023-05-16T21:48:11.299Z,8.87
2023-05-16T21:50:38.352Z,8.92
2023-05-16T21:53:05.478Z,8.83
2023-05-16T21:55:32.643Z,9.02
2023-05-16T21:57:59.777Z,9.07
2023-05-16T22:00:26.704Z,9.16
2023-05-16T22:02:55.152Z,9.03
2023-05-16T22:05:22.332Z,9.07
2023-05-16T22:07:49.212Z,8.93
2023-05-16T22:10:17.084Z,8.91
2023-05-16T22:12:44.160Z,8.95
2023-05-16T22:15:11.650Z,8.78
2023-05-16T22:17:38.651Z,8.98
2023-05-16T22:20:06.452Z,9.03
2023-05-16T22:22:33.371Z,9.04
2023-05-16T22:25:03.216Z,9.14
2023-05-16T22:27:30.283Z,9.09
2023-05-16T22:29:57.310Z,9.04
2023-05-16T22:32:24.724Z,9.12
2023-05-16T22:34:52.886Z,9.04
2023-05-16T22:37:19.884Z,9.06
2023-05-16T22:39:47.017Z,9.10
2023-05-16T22:42:14.100Z,9.15
2023-05-16T22:44:41.040Z,9.15
2023-05-16T22:47:08.026Z,9.04
2023-05-16T22:49:35.018Z,9.05
2023-05-16T22:52:01.926Z,9.03
2023-05-16T22:54:28.956Z,9.00
2023-05-16T22:56:56.315Z,9.02
2023-05-16T22:59:23.313Z,9.00
2023-05-16T23:01:50.343Z,8.95
2023-05-16T23:04:17.181Z,9.20
2023-05-16T23:06:44.093Z,8.99
2023-05-16T23:09:10.940Z,8.84
2023-05-16T23:11:37.918Z,8.91
2023-05-16T23:14:04.938Z,8.90
2023-05-16T23:16:31.750Z,8.93
2023-05-16T23:18:58.809Z,8.97
2023-05-16T23:21:25.836Z,9.20
2023-05-16T23:23:52.731Z,9.32
2023-05-16T23:26:19.693Z,9.27
2023-05-16T23:28:46.614Z,9.18
2023-05-16T23:31:13.688Z,9.02
2023-05-16T23:33:40.518Z,8.97
2023-05-16T23:36:07.673Z,8.96
2023-05-16T23:38:34.638Z,8.58
2023-05-16T23:41:01.655Z,8.37
2023-05-16T23:43:28.509Z,8.20
2023-05-16T23:45:55.464Z,8.03
2023-05-16T23:48:22.454Z,7.73
2023-05-16T23:50:49.408Z,7.63
2023-05-16T23:53:16.872Z,7.53
2023-05-16T23:55:44.215Z,7.30
2023-05-16T23:58:11.255Z,7.42
